Time;durP1;ratioP1;P1;durP2;ratioP2;P2;SDS_P1;SDS_P2;PMS_P1;PMS_P2;Temp;Humidity;BMP_temperature;BMP_pressure;BME280_temperature;BME280_humidity;BME280_pressure;Samples;Min_cycle;Max_cycle;Signal;HPM_P1;HPM_P2
2022/06/30 00:00:10;;;;;;;28.23;25.37;;;;;;;21.99;100.00;98612.20;2038295;85;21033;-89
2022/06/30 00:03:12;;;;;;;29.82;26.95;;;;;;;21.99;100.00;98613.00;2039931;85;21585;-89
2022/06/30 00:06:13;;;;;;;29.50;26.70;;;;;;;22.00;100.00;98603.94;2055490;85;21106;-88
2022/06/30 00:09:14;;;;;;;28.80;26.10;;;;;;;22.00;100.00;98602.61;2058558;84;21250;-88
2022/06/30 00:12:14;;;;;;;29.42;26.62;;;;;;;21.92;100.00;98597.75;2055423;85;21557;-90
2022/06/30 00:15:15;;;;;;;28.55;25.77;;;;;;;21.87;100.00;98596.39;2056083;85;21643;-89
2022/06/30 00:18:16;;;;;;;24.82;22.32;;;;;;;21.82;100.00;98596.34;2053121;85;21030;-89
2022/06/30 00:21:16;;;;;;;24.82;22.35;;;;;;;21.79;100.00;98587.00;2050324;85;21148;-89
2022/06/30 00:24:17;;;;;;;23.25;21.02;;;;;;;21.75;100.00;98584.56;2053724;85;21586;-88
2022/06/30 00:27:18;;;;;;;24.15;21.77;;;;;;;21.71;100.00;98578.67;2050584;86;21093;-89
2022/06/30 00:30:18;;;;;;;23.07;21.02;;;;;;;21.74;100.00;98570.97;2055183;85;21056;-89
2022/06/30 00:33:19;;;;;;;22.95;20.72;;;;;;;21.76;100.00;98565.38;2054634;84;21124;-88
2022/06/30 00:36:20;;;;;;;23.35;20.88;;;;;;;21.81;100.00;98562.77;2050585;84;21038;-90
2022/06/30 00:39:20;;;;;;;23.67;21.60;;;;;;;21.85;100.00;98564.67;2048707;85;21112;-89
2022/06/30 00:42:22;;;;;;;21.73;19.57;;;;;;;21.82;100.00;98561.17;2045437;85;21014;-88
2022/06/30 00:45:22;;;;;;;21.42;19.30;;;;;;;21.80;100.00;98560.63;2043492;85;21068;-88
2022/06/30 00:48:23;;;;;;;21.82;19.75;;;;;;;21.77;100.00;98561.68;2052743;86;21144;-88
2022/06/30 00:51:23;;;;;;;21.65;19.65;;;;;;;21.74;100.00;98557.64;2050997;86;21604;-89
2022/06/30 00:54:24;;;;;;;22.35;20.00;;;;;;;21.71;100.00;98557.36;2058279;85;21600;-89
2022/06/30 00:57:25;;;;;;;21.55;19.55;;;;;;;21.69;100.00;98549.62;2047074;85;21089;-89
2022/06/30 01:00:25;;;;;;;20.15;18.17;;;;;;;21.61;100.00;98542.64;2039262;86;21074;-89
2022/06/30 01:03:26;;;;;;;22.62;19.98;;;;;;;21.52;100.00;98544.44;2049637;84;21109;-88
2022/06/30 01:06:27;;;;;;;22.02;19.92;;;;;;;21.45;100.00;98543.03;2069079;84;21057;-89
2022/06/30 01:12:46;;;;;;;18.92;17.12;;;;;;;21.38;100.00;98545.10;2054131;84;21085;-89
2022/06/30 01:15:47;;;;;;;21.25;19.15;;;;;;;21.34;100.00;98542.15;2052826;84;21050;-88
2022/06/30 01:18:48;;;;;;;20.65;18.85;;;;;;;21.33;100.00;98538.41;2040406;86;21625;-89
2022/06/30 01:21:49;;;;;;;19.17;17.27;;;;;;;21.35;100.00;98538.95;2056779;84;21089;-89
2022/06/30 01:25:01;;;;;;;20.65;18.12;;;;;;;21.37;100.00;98536.84;2049267;85;21130;-89
2022/06/30 01:28:02;;;;;;;21.23;19.12;;;;;;;21.37;100.00;98536.84;2057251;84;21120;-89
2022/06/30 01:31:03;;;;;;;20.05;18.25;;;;;;;21.42;100.00;98536.89;2036558;85;21073;-88
2022/06/30 01:34:03;;;;;;;19.37;17.77;;;;;;;21.46;100.00;98532.66;2043661;85;21176;-88
2022/06/30 01:37:04;;;;;;;20.80;18.73;;;;;;;21.49;100.00;98530.83;2054837;86;21105;-88
2022/06/30 01:40:04;;;;;;;19.52;17.80;;;;;;;21.51;100.00;98540.70;2041401;85;21558;-89
2022/06/30 01:43:06;;;;;;;18.67;16.97;;;;;;;21.55;100.00;98533.80;2046735;85;21088;-89
2022/06/30 01:46:06;;;;;;;20.70;18.80;;;;;;;21.60;100.00;98539.70;2055947;85;21684;-89
2022/06/30 01:49:07;;;;;;;23.05;19.10;;;;;;;21.66;100.00;98543.98;2054740;85;21041;-89
2022/06/30 01:52:08;;;;;;;21.17;19.20;;;;;;;21.69;100.00;98538.97;2060080;85;21029;-89
2022/06/30 01:55:08;;;;;;;22.07;20.05;;;;;;;21.72;100.00;98538.45;2048487;85;21056;-87
2022/06/30 01:58:09;;;;;;;23.42;21.15;;;;;;;21.77;100.00;98537.16;2034057;85;21038;-88
2022/06/30 02:01:10;;;;;;;22.50;20.37;;;;;;;21.71;100.00;98535.52;2045611;84;21090;-89
2022/06/30 02:07:30;;;;;;;23.60;21.40;;;;;;;21.54;100.00;98526.86;2037901;85;21121;-88
2022/06/30 02:10:30;;;;;;;23.18;20.30;;;;;;;21.45;100.00;98525.72;2045455;85;21057;-89
2022/06/30 02:13:31;;;;;;;21.68;19.87;;;;;;;21.38;100.00;98526.45;2066265;84;21037;-89
2022/06/30 02:16:32;;;;;;;25.00;22.50;;;;;;;21.32;100.00;98522.17;2078390;84;20990;-89
2022/06/30 02:19:32;;;;;;;28.85;21.37;;;;;;;21.28;100.00;98518.66;2073047;84;21073;-89
2022/06/30 02:22:33;;;;;;;24.90;22.55;;;;;;;21.28;100.00;98517.86;2074136;84;21061;-88
2022/06/30 02:25:34;;;;;;;23.83;21.50;;;;;;;21.28;100.00;98521.85;2074446;84;21038;-89
2022/06/30 02:28:34;;;;;;;24.23;21.82;;;;;;;21.22;100.00;98504.22;2065526;85;21109;-88
2022/06/30 02:31:35;;;;;;;24.27;21.82;;;;;;;21.37;100.00;98521.66;2027959;86;21513;-89
2022/06/30 02:34:35;;;;;;;23.18;21.17;;;;;;;21.42;100.00;98516.39;2034127;85;21005;-89
2022/06/30 02:37:36;;;;;;;23.05;20.97;;;;;;;21.42;100.00;98512.39;2041466;85;21407;-87
2022/06/30 02:40:37;;;;;;;20.92;18.90;;;;;;;21.38;100.00;98515.27;2059588;85;21076;-89
2022/06/30 02:43:37;;;;;;;23.95;21.60;;;;;;;21.32;100.00;98516.84;2049560;86;21038;-88
2022/06/30 02:46:38;;;;;;;21.80;19.75;;;;;;;21.28;100.00;98507.20;2058555;85;21064;-88
2022/06/30 02:49:39;;;;;;;21.23;19.23;;;;;;;21.33;100.00;98509.13;2061723;85;21091;-89
2022/06/30 02:52:39;;;;;;;24.18;21.80;;;;;;;21.33;100.00;98513.12;2050299;85;21557;-88
2022/06/30 02:55:40;;;;;;;21.90;19.82;;;;;;;21.26;100.00;98514.63;2055087;85;21093;-88
2022/06/30 02:58:41;;;;;;;22.77;20.68;;;;;;;21.18;100.00;98508.42;2061361;85;21560;-88
2022/06/30 03:01:41;;;;;;;23.40;20.95;;;;;;;21.12;100.00;98508.09;2043819;85;21512;-89
2022/06/30 03:04:42;;;;;;;20.68;18.90;;;;;;;21.10;100.00;98512.34;2051066;85;21081;-88
2022/06/30 03:07:43;;;;;;;22.52;20.20;;;;;;;21.12;100.00;98511.59;2046975;86;21077;-89
2022/06/30 03:10:43;;;;;;;24.52;22.10;;;;;;;21.15;100.00;98505.75;2048381;85;21026;-88
2022/06/30 03:13:48;;;;;;;22.37;20.05;;;;;;;21.20;100.00;98503.11;2035282;85;21070;-88
2022/06/30 03:16:46;;;;;;;21.85;19.65;;;;;;;21.25;100.00;98497.84;2047424;85;21129;-88
2022/06/30 03:19:47;;;;;;;23.50;21.30;;;;;;;21.32;100.00;98500.33;2034280;85;21054;-89
2022/06/30 03:22:48;;;;;;;26.70;23.90;;;;;;;21.38;100.00;98501.16;2052046;85;21026;-88
2022/06/30 03:25:48;;;;;;;29.15;25.70;;;;;;;21.42;100.00;98499.61;2050017;84;21077;-89
2022/06/30 03:28:49;;;;;;;27.95;23.27;;;;;;;21.50;100.00;98496.48;2038612;84;21229;-88
2022/06/30 03:31:50;;;;;;;40.70;28.42;;;;;;;21.56;100.00;98494.91;2041521;84;21051;-89
2022/06/30 03:34:51;;;;;;;32.20;27.00;;;;;;;21.60;100.00;98495.75;2033911;85;21133;-89
2022/06/30 03:37:51;;;;;;;27.42;23.85;;;;;;;21.68;100.00;98497.41;2049716;85;21182;-88
2022/06/30 03:40:52;;;;;;;24.18;21.77;;;;;;;21.79;100.00;98503.06;2050038;86;21066;-89
2022/06/30 03:43:53;;;;;;;21.55;19.52;;;;;;;21.89;100.00;98501.52;2051231;85;21584;-88
2022/06/30 03:46:54;;;;;;;22.73;20.65;;;;;;;22.05;100.00;98507.22;2047656;85;21041;-89
2022/06/30 03:49:55;;;;;;;20.00;18.12;;;;;;;22.21;100.00;98500.91;2048831;85;21587;-87
2022/06/30 03:52:55;;;;;;;19.45;17.77;;;;;;;22.37;100.00;98503.91;2052189;85;21143;-89
2022/06/30 03:55:56;;;;;;;21.60;19.32;;;;;;;22.55;100.00;98506.65;2057076;85;21648;-89
2022/06/30 03:58:57;;;;;;;21.23;19.42;;;;;;;22.80;100.00;98509.13;2053691;85;21053;-88
2022/06/30 04:01:57;;;;;;;21.60;19.52;;;;;;;23.08;100.00;98503.33;2052705;85;21105;-89
2022/06/30 04:04:58;;;;;;;20.90;18.85;;;;;;;23.45;100.00;98499.59;2042600;86;21066;-88
2022/06/30 04:07:59;;;;;;;18.98;17.30;;;;;;;23.76;100.00;98498.51;2045725;84;21037;-89
2022/06/30 04:10:59;;;;;;;19.45;17.82;;;;;;;24.11;100.00;98505.64;2047471;86;20995;-90
2022/06/30 04:14:00;;;;;;;20.60;18.65;;;;;;;24.45;100.00;98496.99;2052876;85;21045;-90
2022/06/30 04:17:01;;;;;;;19.65;17.80;;;;;;;24.79;100.00;98502.98;2045779;85;21065;-90
2022/06/30 04:20:02;;;;;;;19.77;17.87;;;;;;;25.14;100.00;98501.95;2040678;85;22166;-89
2022/06/30 04:23:03;;;;;;;19.75;17.95;;;;;;;25.51;100.00;98504.88;2047483;85;21050;-89
2022/06/30 04:26:04;;;;;;;17.55;16.12;;;;;;;25.83;100.00;98506.75;2055102;85;21085;-89
2022/06/30 04:29:04;;;;;;;18.95;17.45;;;;;;;26.25;100.00;98516.77;2051289;85;21068;-89
2022/06/30 04:35:24;;;;;;;18.07;16.73;;;;;;;26.90;100.00;98517.81;2042697;86;21165;-89
2022/06/30 04:38:25;;;;;;;17.77;16.37;;;;;;;27.30;100.00;98512.13;2056648;85;21482;-88
2022/06/30 04:41:26;;;;;;;18.12;16.42;;;;;;;27.66;100.00;98514.50;2056387;85;21615;-88
2022/06/30 04:44:27;;;;;;;17.85;16.45;;;;;;;28.12;100.00;98522.28;2054082;85;21064;-87
2022/06/30 04:47:30;;;;;;;17.02;15.48;;;;;;;28.56;100.00;98541.34;2050896;85;20989;-88
2022/06/30 04:50:31;;;;;;;17.57;16.27;;;;;;;29.03;100.00;98566.77;2057750;86;21065;-87
2022/06/30 04:53:32;;;;;;;19.20;17.42;;;;;;;29.43;100.00;98577.15;2052093;83;20991;-85
2022/06/30 04:56:33;;;;;;;17.52;16.12;;;;;;;29.74;100.00;98579.39;2044096;85;21102;-88
2022/06/30 04:59:33;;;;;;;19.85;18.45;;;;;;;30.09;100.00;98586.36;2049433;85;21053;-87
2022/06/30 05:02:34;;;;;;;20.20;18.62;;;;;;;30.24;100.00;98599.42;2055436;85;21049;-86
2022/06/30 05:05:34;;;;;;;19.52;18.00;;;;;;;30.36;100.00;98596.16;2052623;85;21556;-86
2022/06/30 05:08:35;;;;;;;19.15;17.70;;;;;;;30.52;100.00;98594.61;2052979;84;21058;-88
2022/06/30 05:11:36;;;;;;;19.02;17.52;;;;;;;30.74;100.00;98601.07;2048087;84;21043;-87
2022/06/30 05:14:36;;;;;;;19.15;17.70;;;;;;;31.01;100.00;98635.14;2045310;84;21129;-86
2022/06/30 05:17:37;;;;;;;20.25;18.57;;;;;;;31.07;100.00;98636.56;2047636;85;21066;-87
2022/06/30 05:20:38;;;;;;;19.62;17.87;;;;;;;30.59;100.00;98597.66;2044154;86;21099;-89
2022/06/30 05:26:28;;;;;;;19.42;17.92;;;;;;;30.54;100.00;98630.23;2048979;86;21620;-85
2022/06/30 05:26:41;;;;;;;19.85;18.35;;;;;;;30.28;100.00;98617.17;2039881;86;20991;-82
2022/06/30 05:29:42;;;;;;;20.02;18.15;;;;;;;29.81;100.00;98578.95;2057432;84;21395;-83
2022/06/30 05:32:43;;;;;;;19.82;18.20;;;;;;;29.87;100.00;98614.69;2051348;84;21599;-83
2022/06/30 05:35:44;;;;;;;19.40;17.57;;;;;;;29.75;100.00;98616.61;2065575;84;21070;-85
2022/06/30 05:38:44;;;;;;;18.27;16.90;;;;;;;29.63;100.00;98602.33;2068148;85;21077;-87
2022/06/30 05:41:45;;;;;;;20.08;18.37;;;;;;;29.52;100.00;98608.25;2046913;85;21190;-82
2022/06/30 05:44:46;;;;;;;21.15;19.35;;;;;;;29.19;100.00;98605.76;2050955;84;21576;-85
2022/06/30 05:47:46;;;;;;;19.37;17.87;;;;;;;29.19;100.00;98590.93;2084921;84;21057;-86
2022/06/30 05:50:47;;;;;;;19.90;18.17;;;;;;;29.22;100.00;98590.87;2043605;85;21062;-85
2022/06/30 05:53:48;;;;;;;21.12;19.45;;;;;;;29.26;100.00;98605.31;2069266;83;21123;-86
2022/06/30 05:56:49;;;;;;;20.55;18.60;;;;;;;29.22;100.00;98610.53;2069580;84;21009;-85
2022/06/30 05:59:49;;;;;;;20.15;18.62;;;;;;;29.11;100.00;98612.66;2048950;86;21080;-87
2022/06/30 06:02:50;;;;;;;20.30;18.55;;;;;;;28.97;100.00;98599.75;2056770;86;21564;-87
2022/06/30 06:05:51;;;;;;;20.35;18.55;;;;;;;28.85;100.00;98587.33;2041284;85;21050;-85
2022/06/30 06:08:52;;;;;;;19.05;17.60;;;;;;;28.79;100.00;98594.71;2048970;85;21466;-85
2022/06/30 06:11:53;;;;;;;20.12;18.57;;;;;;;28.77;100.00;98614.42;2053787;86;21056;-86
2022/06/30 06:14:54;;;;;;;20.90;19.05;;;;;;;28.67;100.00;98611.95;2042851;85;21101;-84
2022/06/30 06:17:54;;;;;;;19.42;17.77;;;;;;;28.66;100.00;98605.52;2056977;85;21046;-83
2022/06/30 06:20:55;;;;;;;23.47;18.32;;;;;;;28.74;100.00;98579.22;2101280;84;21036;-84
2022/06/30 06:23:56;;;;;;;21.27;19.42;;;;;;;28.78;100.00;98594.47;2091808;84;22083;-83
2022/06/30 06:26:56;;;;;;;21.87;20.17;;;;;;;28.34;100.00;98582.41;2067733;84;21137;-85
2022/06/30 06:29:57;;;;;;;20.82;18.98;;;;;;;28.30;100.00;98592.75;2033901;85;21582;-86
2022/06/30 06:32:58;;;;;;;21.90;20.10;;;;;;;28.37;100.00;98584.28;2060724;84;22170;-86
2022/06/30 06:35:59;;;;;;;20.12;18.48;;;;;;;28.09;100.00;98595.00;2034169;85;21030;-84
2022/06/30 06:38:59;;;;;;;22.25;20.35;;;;;;;28.19;100.00;98589.42;2031066;85;21046;-86
2022/06/30 06:42:00;;;;;;;21.60;19.87;;;;;;;27.94;100.00;98581.80;2037529;85;21629;-86
2022/06/30 06:45:01;;;;;;;19.12;17.73;;;;;;;27.80;100.00;98582.31;1998927;86;21084;-84
2022/06/30 06:48:01;;;;;;;20.95;19.05;;;;;;;27.60;100.00;98589.59;2014254;87;21076;-85
2022/06/30 06:51:02;;;;;;;20.70;18.55;;;;;;;27.50;100.00;98594.59;2001179;87;21055;-85
2022/06/30 06:54:03;;;;;;;21.25;19.45;;;;;;;27.35;100.00;98585.98;2028471;85;21070;-84
2022/06/30 06:57:04;;;;;;;19.50;18.00;;;;;;;27.31;100.00;98584.41;2057439;84;21510;-85
2022/06/30 07:00:04;;;;;;;19.30;17.52;;;;;;;27.57;100.00;98614.39;2063156;83;21023;-85
2022/06/30 07:03:05;;;;;;;20.97;19.23;;;;;;;27.85;100.00;98611.27;2047906;84;21097;-85
2022/06/30 07:06:06;;;;;;;19.15;17.45;;;;;;;27.99;100.00;98608.63;1993741;86;21114;-85
2022/06/30 07:09:07;;;;;;;21.35;19.57;;;;;;;27.97;100.00;98599.48;1997471;86;21609;-85
2022/06/30 07:12:08;;;;;;;19.60;17.95;;;;;;;27.86;100.00;98597.28;2001795;87;21143;-85
2022/06/30 07:15:09;;;;;;;21.12;19.23;;;;;;;27.96;100.00;98609.20;1995908;88;21622;-85
2022/06/30 07:18:10;;;;;;;21.50;19.60;;;;;;;28.25;100.00;98612.98;1998444;87;21136;-85
2022/06/30 07:21:11;;;;;;;20.08;18.50;;;;;;;28.45;100.00;98593.02;1995976;87;21186;-85
2022/06/30 07:24:11;;;;;;;21.93;20.17;;;;;;;28.57;100.00;98612.15;1997406;87;20991;-86
2022/06/30 07:27:12;;;;;;;20.62;18.80;;;;;;;28.66;100.00;98606.31;2043214;85;21057;-86
2022/06/30 07:30:13;;;;;;;20.45;18.70;;;;;;;28.60;100.00;98608.84;2017641;87;21067;-85
2022/06/30 07:33:17;;;;;;;20.88;19.07;;;;;;;28.73;100.00;98608.61;1984011;87;21160;-85
2022/06/30 07:36:18;;;;;;;21.33;19.57;;;;;;;28.82;100.00;98596.82;2018593;88;21158;-85
2022/06/30 07:39:19;;;;;;;21.33;19.70;;;;;;;28.72;100.00;98599.73;2017584;87;21090;-84
2022/06/30 07:42:37;;;;;;;19.70;17.87;;;;;;;28.71;100.00;98608.09;2021883;86;21047;-85
2022/06/30 07:45:56;;;;;;;22.15;20.23;;;;;;;28.60;100.00;98616.92;2009738;88;21636;-85
2022/06/30 07:49:15;;;;;;;20.88;19.27;;;;;;;28.53;100.00;98610.62;1987423;89;21664;-85
2022/06/30 07:52:34;;;;;;;21.10;19.40;;;;;;;28.65;100.00;98603.92;1992982;87;21721;-85
2022/06/30 07:55:35;;;;;;;20.15;18.45;;;;;;;28.83;100.00;98597.63;1988852;87;21041;-86
2022/06/30 07:58:36;;;;;;;21.20;19.48;;;;;;;28.94;100.00;98594.19;2003689;86;22097;-86
2022/06/30 08:01:36;;;;;;;20.85;19.05;;;;;;;29.00;100.00;98592.98;2002049;86;21069;-86
2022/06/30 08:04:37;;;;;;;21.97;19.98;;;;;;;29.00;100.00;98594.33;2008517;87;21173;-86
2022/06/30 08:07:38;;;;;;;21.62;19.73;;;;;;;29.05;100.00;98599.59;2015417;87;21049;-86
2022/06/30 08:10:38;;;;;;;20.95;19.27;;;;;;;29.04;100.00;98596.66;1986545;87;21125;-85
2022/06/30 08:13:39;;;;;;;20.60;18.90;;;;;;;29.07;100.00;98595.48;2047086;85;21021;-86
2022/06/30 08:16:40;;;;;;;21.27;19.27;;;;;;;29.21;100.00;98590.63;2069777;84;21073;-85
2022/06/30 08:19:41;;;;;;;22.55;20.70;;;;;;;29.35;100.00;98584.09;2022991;86;21565;-84
2022/06/30 08:22:42;;;;;;;22.67;20.12;;;;;;;29.38;100.00;98590.77;1981588;87;21060;-84
2022/06/30 08:25:42;;;;;;;20.62;19.02;;;;;;;29.34;100.00;98593.26;1984612;88;21646;-84
2022/06/30 08:28:43;;;;;;;20.12;18.23;;;;;;;29.50;100.00;98586.99;2035823;86;21081;-85
2022/06/30 08:31:44;;;;;;;21.12;19.40;;;;;;;29.53;100.00;98590.41;2040006;86;21072;-85
2022/06/30 08:34:45;;;;;;;20.52;18.77;;;;;;;29.51;100.00;98590.48;2017988;87;21127;-83
2022/06/30 08:37:45;;;;;;;20.70;19.10;;;;;;;29.61;100.00;98592.38;2022229;85;21611;-87
2022/06/30 08:44:05;;;;;;;20.12;18.48;;;;;;;29.96;100.00;98595.30;2045132;85;21109;-85
2022/06/30 08:47:07;;;;;;;21.62;19.62;;;;;;;30.13;100.00;98593.27;2033183;85;21061;-85
2022/06/30 08:50:11;;;;;;;20.45;18.67;;;;;;;30.15;100.00;98601.30;1992435;86;21089;-84
2022/06/30 08:53:11;;;;;;;18.92;17.48;;;;;;;30.20;100.00;98598.47;2027341;86;21096;-84
2022/06/30 08:56:12;;;;;;;19.85;18.25;;;;;;;30.26;100.00;98597.20;2059546;85;21432;-85
2022/06/30 08:59:13;;;;;;;19.85;18.35;;;;;;;30.22;100.00;98597.59;2030276;86;21117;-84
2022/06/30 09:02:14;;;;;;;19.23;17.73;;;;;;;30.18;100.00;98599.34;2027240;86;21084;-84
2022/06/30 09:05:14;;;;;;;19.15;17.50;;;;;;;30.23;100.00;98600.54;2026389;85;21065;-84
2022/06/30 09:08:15;;;;;;;19.73;18.07;;;;;;;30.35;100.00;98601.84;2008801;86;21046;-85
2022/06/30 09:11:16;;;;;;;20.05;18.35;;;;;;;30.48;100.00;98605.02;1979053;88;21095;-86
2022/06/30 09:14:17;;;;;;;18.98;17.17;;;;;;;30.59;100.00;98602.27;2014178;86;21574;-84
2022/06/30 09:17:17;;;;;;;19.80;18.27;;;;;;;30.69;100.00;98601.20;1999029;87;21103;-85
2022/06/30 09:20:18;;;;;;;21.33;19.42;;;;;;;30.80;100.00;98601.14;2001861;87;21106;-86
2022/06/30 09:23:19;;;;;;;19.52;17.67;;;;;;;30.85;100.00;98599.66;2031156;85;21137;-85
2022/06/30 09:26:20;;;;;;;17.02;15.55;;;;;;;30.91;100.00;98601.63;2039353;84;21081;-86
2022/06/30 09:29:21;;;;;;;17.80;16.30;;;;;;;30.91;100.00;98598.93;2052072;85;21088;-86
2022/06/30 09:32:21;;;;;;;19.50;17.90;;;;;;;30.92;100.00;98604.60;2028188;86;21042;-87
2022/06/30 09:35:22;;;;;;;18.25;16.80;;;;;;;30.90;100.00;98599.48;2059962;84;21078;-87
2022/06/30 09:38:23;;;;;;;19.10;17.67;;;;;;;30.95;100.00;98604.75;2056316;85;21051;-86
2022/06/30 09:41:24;;;;;;;18.32;16.93;;;;;;;31.01;100.00;98594.59;2018809;86;21026;-85
2022/06/30 09:44:24;;;;;;;17.10;15.78;;;;;;;31.05;100.00;98592.84;2021950;86;21133;-85
2022/06/30 09:47:25;;;;;;;18.92;17.40;;;;;;;31.08;100.00;98594.90;2025581;85;21033;-85
2022/06/30 09:50:26;;;;;;;19.25;17.55;;;;;;;31.09;100.00;98603.25;2068449;84;21037;-84
2022/06/30 09:53:27;;;;;;;18.00;16.60;;;;;;;31.15;100.00;98597.94;2080509;84;21056;-85
2022/06/30 09:56:28;;;;;;;18.05;16.65;;;;;;;31.21;100.00;98591.86;2045611;85;21014;-83
2022/06/30 09:59:28;;;;;;;17.70;16.20;;;;;;;31.26;100.00;98589.77;2036056;85;21871;-86
2022/06/30 10:02:30;;;;;;;17.60;16.02;;;;;;;31.23;100.00;98581.51;2022685;85;21040;-84
2022/06/30 10:05:31;;;;;;;20.55;17.62;;;;;;;31.24;100.00;98586.59;2016610;87;21122;-85
2022/06/30 10:08:32;;;;;;;19.67;17.75;;;;;;;31.25;100.00;98581.98;2017611;86;21054;-85
2022/06/30 10:11:32;;;;;;;18.52;17.02;;;;;;;31.31;100.00;98579.36;2016477;86;21121;-85
2022/06/30 10:14:34;;;;;;;17.17;15.80;;;;;;;31.45;100.00;98570.50;2005646;86;21066;-86
2022/06/30 10:17:34;;;;;;;18.57;16.85;;;;;;;31.53;100.00;98572.97;2001546;87;21085;-84
2022/06/30 10:20:38;;;;;;;20.35;18.40;;;;;;;31.64;100.00;98571.54;2007997;86;21562;-85
2022/06/30 10:23:38;;;;;;;17.12;15.72;;;;;;;31.78;100.00;98580.28;2015215;87;21127;-84
2022/06/30 10:29:57;;;;;;;15.85;14.65;;;;;;;32.02;100.00;98571.62;2007687;86;21603;-86
2022/06/30 10:32:58;;;;;;;16.05;14.85;;;;;;;32.08;100.00;98570.87;2019978;86;21134;-86
2022/06/30 10:35:59;;;;;;;16.15;14.83;;;;;;;32.08;100.00;98570.87;2023346;87;21085;-85
2022/06/30 10:39:00;;;;;;;17.90;16.40;;;;;;;32.16;100.00;98574.10;1983870;88;21058;-84
2022/06/30 10:42:00;;;;;;;16.12;14.85;;;;;;;32.20;100.00;98568.29;2018569;87;21060;-85
2022/06/30 10:45:01;;;;;;;14.07;13.08;;;;;;;32.23;100.00;98570.34;2025029;86;21043;-85
2022/06/30 10:48:02;;;;;;;13.95;12.58;;;;;;;32.27;100.00;98567.99;1994577;87;21104;-84
2022/06/30 10:51:03;;;;;;;13.85;12.75;;;;;;;32.30;100.00;98573.91;2002096;86;21157;-85
2022/06/30 10:54:04;;;;;;;12.30;11.40;;;;;;;32.20;100.00;98571.00;2003674;87;21075;-86
2022/06/30 10:57:05;;;;;;;12.75;11.85;;;;;;;32.16;100.00;98572.75;1995261;87;21134;-85
2022/06/30 11:00:06;;;;;;;15.08;12.07;;;;;;;32.18;100.00;98574.01;1996156;87;21058;-85
2022/06/30 11:03:06;;;;;;;11.90;11.00;;;;;;;32.26;100.00;98566.41;1996165;87;21089;-85
2022/06/30 11:06:07;;;;;;;12.55;11.45;;;;;;;32.39;100.00;98566.56;1990508;87;21065;-85
2022/06/30 11:09:08;;;;;;;11.95;11.00;;;;;;;32.50;100.00;98565.06;1995102;87;21023;-84
2022/06/30 11:12:08;;;;;;;11.15;10.15;;;;;;;32.58;100.00;98557.45;1997612;88;21065;-85
2022/06/30 11:15:14;;;;;;;8.78;8.23;;;;;;;32.72;100.00;98556.62;1995837;87;21106;-85
2022/06/30 11:18:14;;;;;;;10.53;9.70;;;;;;;32.79;76.35;98557.46;2012944;87;21195;-86
2022/06/30 11:21:15;;;;;;;10.30;9.60;;;;;;;32.86;68.78;98548.84;2002693;86;21067;-89
2022/06/30 11:24:20;;;;;;;10.58;9.88;;;;;;;32.89;67.33;98547.61;2014757;83;21099;-83
2022/06/30 11:27:19;;;;;;;9.23;8.55;;;;;;;32.93;63.00;98544.48;2005545;86;21070;-83
2022/06/30 11:30:19;;;;;;;9.20;8.50;;;;;;;33.03;61.93;98550.07;2055637;85;21100;-84
2022/06/30 11:33:20;;;;;;;9.00;8.40;;;;;;;33.07;59.18;98539.57;2057511;84;21053;-84
2022/06/30 11:36:21;;;;;;;8.50;7.75;;;;;;;33.09;57.96;98535.17;2064720;85;21064;-84
2022/06/30 11:39:25;;;;;;;9.40;8.55;;;;;;;33.14;52.92;98531.47;2032349;85;21089;-84
2022/06/30 11:42:25;;;;;;;9.35;8.43;;;;;;;33.21;51.91;98525.75;2019171;86;21117;-84
2022/06/30 11:45:29;;;;;;;9.88;9.10;;;;;;;33.27;51.88;98521.68;2028816;86;21101;-84
2022/06/30 11:48:28;;;;;;;9.15;8.55;;;;;;;33.36;51.56;98519.70;2016036;87;21058;-84
2022/06/30 11:51:29;;;;;;;9.00;8.45;;;;;;;33.44;51.46;98523.47;2016945;87;21102;-84
2022/06/30 11:54:30;;;;;;;8.88;8.13;;;;;;;33.49;49.39;98527.34;2022361;86;21025;-84
2022/06/30 11:57:31;;;;;;;7.58;6.97;;;;;;;33.51;48.28;98518.86;2011347;88;21131;-84
2022/06/30 12:00:33;;;;;;;7.75;7.05;;;;;;;33.48;46.41;98514.91;2012564;86;21118;-86
2022/06/30 12:03:34;;;;;;;7.35;6.75;;;;;;;33.50;45.96;98519.99;2003057;86;21052;-85
2022/06/30 12:06:34;;;;;;;7.80;7.05;;;;;;;33.54;45.84;98513.54;2019826;85;21083;-84
2022/06/30 12:09:35;;;;;;;6.92;6.42;;;;;;;33.62;45.39;98509.95;2056463;85;21125;-86
2022/06/30 12:12:36;;;;;;;9.63;7.20;;;;;;;33.65;44.81;98503.86;2045533;85;21015;-86
2022/06/30 12:15:37;;;;;;;8.18;7.35;;;;;;;33.65;44.00;98502.51;2052748;86;21597;-86
2022/06/30 12:18:37;;;;;;;7.72;7.08;;;;;;;33.63;43.50;98499.87;2053539;85;21117;-87
2022/06/30 12:21:38;;;;;;;7.85;7.10;;;;;;;33.53;42.74;98494.32;2067345;84;21066;-87
2022/06/30 12:24:39;;;;;;;8.13;7.28;;;;;;;33.34;43.06;98487.23;2050856;85;21137;-84
2022/06/30 12:27:39;;;;;;;7.58;7.08;;;;;;;33.34;43.06;98487.23;2052493;85;21258;-83
2022/06/30 12:30:40;;;;;;;6.30;5.80;;;;;;;33.34;43.09;98479.89;2061600;85;21050;-84
2022/06/30 12:33:41;;;;;;;6.28;5.75;;;;;;;33.42;42.90;98478.25;2059680;85;21578;-83
2022/06/30 12:36:42;;;;;;;6.35;5.85;;;;;;;33.52;42.86;98482.45;2056623;85;21014;-85
2022/06/30 12:39:42;;;;;;;6.17;5.67;;;;;;;33.73;41.99;98479.08;2024265;87;21079;-83
2022/06/30 12:42:43;;;;;;;6.72;6.15;;;;;;;33.93;41.94;98476.09;1995989;87;21062;-82
2022/06/30 12:45:45;;;;;;;6.67;5.97;;;;;;;34.19;41.78;98475.16;1992041;87;21073;-84
2022/06/30 12:48:46;;;;;;;6.75;6.00;;;;;;;34.48;40.38;98491.02;1995841;88;21065;-85
2022/06/30 12:51:47;;;;;;;6.05;5.55;;;;;;;34.68;39.99;98498.80;2000029;87;21601;-82
2022/06/30 12:54:47;;;;;;;5.10;4.80;;;;;;;34.90;38.78;98498.86;1997174;88;21035;-86
2022/06/30 12:57:48;;;;;;;8.60;7.55;;;;;;;35.03;35.50;98503.92;1994711;88;21653;-86
2022/06/30 13:00:49;;;;;;;6.70;6.10;;;;;;;34.53;36.67;98517.16;1993477;87;21585;-85
2022/06/30 13:03:49;;;;;;;8.28;7.33;;;;;;;34.03;37.85;98493.30;1987734;86;21114;-88
2022/06/30 13:06:50;;;;;;;6.90;6.30;;;;;;;33.70;39.29;98503.41;1996571;87;21125;-87
2022/06/30 13:09:51;;;;;;;7.00;6.03;;;;;;;33.52;37.96;98498.73;1994753;87;21121;-86
2022/06/30 13:12:52;;;;;;;6.25;5.75;;;;;;;33.32;36.82;98488.94;1993379;87;21062;-87
2022/06/30 13:15:53;;;;;;;8.43;7.17;;;;;;;33.25;37.56;98487.32;1998021;87;21695;-86
2022/06/30 13:18:54;;;;;;;7.40;6.62;;;;;;;33.15;37.84;98480.96;1995397;87;21050;-87
2022/06/30 13:21:54;;;;;;;7.28;6.67;;;;;;;33.12;38.50;98480.84;1996383;87;21620;-88
2022/06/30 13:24:55;;;;;;;8.15;7.37;;;;;;;33.16;39.56;98475.77;2015342;86;21116;-88
2022/06/30 13:27:56;;;;;;;7.83;7.30;;;;;;;33.29;40.08;98476.61;2014896;85;21545;-87
2022/06/30 13:30:56;;;;;;;7.75;7.05;;;;;;;33.34;40.06;98478.53;2026134;87;21107;-85
2022/06/30 13:34:00;;;;;;;7.47;6.92;;;;;;;33.25;40.44;98490.59;2018382;86;21026;-86
2022/06/30 13:37:00;;;;;;;8.15;6.85;;;;;;;33.16;40.48;98479.83;2022947;86;21569;-87
2022/06/30 13:40:01;;;;;;;8.43;7.62;;;;;;;33.17;40.96;98479.27;2021659;86;21145;-87
2022/06/30 13:43:01;;;;;;;7.03;6.33;;;;;;;33.10;40.38;98477.91;2015542;86;21026;-88
2022/06/30 13:46:02;;;;;;;7.42;6.55;;;;;;;33.07;40.73;98472.34;2066573;84;21056;-88
2022/06/30 13:49:03;;;;;;;6.62;5.78;;;;;;;32.99;39.95;98481.34;2069642;84;21088;-88
2022/06/30 13:52:03;;;;;;;7.87;7.08;;;;;;;32.99;40.57;98474.56;2071533;84;21089;-89
2022/06/30 13:55:04;;;;;;;7.28;6.55;;;;;;;32.85;41.01;98480.28;2056998;84;21684;-86
2022/06/30 13:58:05;;;;;;;11.48;7.53;;;;;;;32.84;40.39;98471.92;2043970;85;21056;-87
2022/06/30 14:01:06;;;;;;;8.30;7.47;;;;;;;32.86;40.55;98468.30;2055331;84;21039;-85
2022/06/30 14:04:06;;;;;;;16.17;14.35;;;;;;;32.96;41.17;98466.54;2068935;84;21596;-89